KBOW/BOW METAR and TAF weather

Enter ICAO airport designator
Station Type Date Time Source
KBOW METAR 2018/09/20 17:45 UTC NOAA

KBOW 201745Z 00000KT 10SM BKN035 32/22 A3005


Station Type Date Time Source
KBOW Decoded METAR 2018/09/20 17:45 UTC NOAA

Bartow Municipal, FL, United States (KBOW) 27-57N 081-47W
Sep 20, 2018 - 01:45 PM EDT / 2018.09.20 1745 UTC
Wind: Calm:0
Visibility: 10 mile(s):0
Sky conditions: mostly cloudy
Temperature: 89 F (32 C)
Heat index: 95.0 F (35.0 C):1
Dew Point: 71 F (22 C)
Relative Humidity: 55%
Pressure (altimeter): 30.05 in. Hg (1017 hPa)
ob: KBOW 201745Z 00000KT 10SM BKN035 32/22 A3005
cycle: 18

Station Type Date Time Source
KBOW TAF UTC NOAA

Error!


Example: see airport list